sensor_id;sensor_type;location;lat;lon;timestamp;pressure;altitude;pressure_sealevel;temperature;humidity
27232;BME280;61835;50.196;6.454;2022-08-02T00:01:43;96747.16;;;19.55;100.00
27232;BME280;61835;50.196;6.454;2022-08-02T00:04:09;96752.94;;;19.44;100.00
27232;BME280;61835;50.196;6.454;2022-08-02T00:06:36;96749.91;;;19.39;100.00
27232;BME280;61835;50.196;6.454;2022-08-02T00:09:02;96745.56;;;19.22;100.00
27232;BME280;61835;50.196;6.454;2022-08-02T00:11:28;96748.72;;;19.25;100.00
27232;BME280;61835;50.196;6.454;2022-08-02T00:13:53;96750.94;;;19.22;100.00
27232;BME280;61835;50.196;6.454;2022-08-02T00:16:19;96749.59;;;19.18;100.00
27232;BME280;61835;50.196;6.454;2022-08-02T00:18:44;96741.00;;;19.14;100.00
27232;BME280;61835;50.196;6.454;2022-08-02T00:21:10;96754.31;;;19.16;100.00
27232;BME280;61835;50.196;6.454;2022-08-02T00:23:35;96758.31;;;19.12;100.00
27232;BME280;61835;50.196;6.454;2022-08-02T00:26:01;96754.81;;;19.03;100.00
27232;BME280;61835;50.196;6.454;2022-08-02T00:28:26;96755.47;;;19.05;100.00
27232;BME280;61835;50.196;6.454;2022-08-02T00:30:52;96759.69;;;18.91;100.00
27232;BME280;61835;50.196;6.454;2022-08-02T00:33:17;96757.66;;;18.85;100.00
27232;BME280;61835;50.196;6.454;2022-08-02T00:35:43;96753.13;;;18.86;100.00
27232;BME280;61835;50.196;6.454;2022-08-02T00:38:11;96749.94;;;18.74;100.00
27232;BME280;61835;50.196;6.454;2022-08-02T00:40:37;96743.22;;;18.70;100.00
27232;BME280;61835;50.196;6.454;2022-08-02T00:43:09;96737.00;;;18.70;100.00
27232;BME280;61835;50.196;6.454;2022-08-02T00:45:38;96739.53;;;18.71;100.00
27232;BME280;61835;50.196;6.454;2022-08-02T00:48:05;96732.13;;;18.65;100.00
27232;BME280;61835;50.196;6.454;2022-08-02T00:50:31;96738.19;;;18.67;100.00
27232;BME280;61835;50.196;6.454;2022-08-02T00:52:57;96742.03;;;18.65;100.00
27232;BME280;61835;50.196;6.454;2022-08-02T00:55:23;96736.16;;;18.69;100.00
27232;BME280;61835;50.196;6.454;2022-08-02T00:57:49;96745.56;;;18.73;100.00
27232;BME280;61835;50.196;6.454;2022-08-02T01:00:15;96742.53;;;18.76;100.00
27232;BME280;61835;50.196;6.454;2022-08-02T01:02:41;96738.88;;;18.77;100.00
27232;BME280;61835;50.196;6.454;2022-08-02T01:05:07;96729.59;;;18.88;100.00
27232;BME280;61835;50.196;6.454;2022-08-02T01:07:32;96731.97;;;18.91;100.00
27232;BME280;61835;50.196;6.454;2022-08-02T01:09:58;96734.97;;;18.96;100.00
27232;BME280;61835;50.196;6.454;2022-08-02T01:12:25;96733.13;;;18.88;100.00
27232;BME280;61835;50.196;6.454;2022-08-02T01:14:52;96732.47;;;18.86;100.00
27232;BME280;61835;50.196;6.454;2022-08-02T01:20:45;96739.69;;;18.78;100.00
27232;BME280;61835;50.196;6.454;2022-08-02T01:23:34;96733.47;;;18.69;100.00
27232;BME280;61835;50.196;6.454;2022-08-02T01:31:28;96736.66;;;18.81;100.00
27232;BME280;61835;50.196;6.454;2022-08-02T01:39:37;96730.59;;;18.87;100.00
27232;BME280;61835;50.196;6.454;2022-08-02T01:42:04;96726.94;;;18.80;100.00
27232;BME280;61835;50.196;6.454;2022-08-02T01:44:33;96726.94;;;18.80;100.00
27232;BME280;61835;50.196;6.454;2022-08-02T01:47:03;96728.44;;;18.74;100.00
27232;BME280;61835;50.196;6.454;2022-08-02T01:49:31;96726.25;;;18.70;100.00
27232;BME280;61835;50.196;6.454;2022-08-02T01:52:00;96730.28;;;18.66;100.00
27232;BME280;61835;50.196;6.454;2022-08-02T01:54:49;96726.25;;;18.62;100.00
27232;BME280;61835;50.196;6.454;2022-08-02T01:57:15;96732.81;;;18.67;100.00
27232;BME280;61835;50.196;6.454;2022-08-02T01:59:43;96734.81;;;18.65;100.00
27232;BME280;61835;50.196;6.454;2022-08-02T02:02:11;96732.28;;;18.64;100.00
27232;BME280;61835;50.196;6.454;2022-08-02T02:04:39;96738.84;;;18.61;100.00
27232;BME280;61835;50.196;6.454;2022-08-02T02:07:05;96743.34;;;18.45;100.00
27232;BME280;61835;50.196;6.454;2022-08-02T02:09:35;96739.97;;;18.42;100.00
27232;BME280;61835;50.196;6.454;2022-08-02T02:12:02;96740.16;;;18.49;100.00
27232;BME280;61835;50.196;6.454;2022-08-02T02:14:28;96742.16;;;18.47;100.00
27232;BME280;61835;50.196;6.454;2022-08-02T02:16:58;96734.75;;;18.41;100.00
27232;BME280;61835;50.196;6.454;2022-08-02T02:19:24;96731.75;;;18.36;100.00
27232;BME280;61835;50.196;6.454;2022-08-02T02:21:51;96721.00;;;18.36;100.00
27232;BME280;61835;50.196;6.454;2022-08-02T02:24:17;96719.69;;;18.56;100.00
27232;BME280;61835;50.196;6.454;2022-08-02T02:26:42;96721.16;;;18.34;100.00
27232;BME280;61835;50.196;6.454;2022-08-02T02:29:09;96715.97;;;18.41;100.00
27232;BME280;61835;50.196;6.454;2022-08-02T02:31:38;96722.00;;;18.43;100.00
27232;BME280;61835;50.196;6.454;2022-08-02T02:34:12;96716.16;;;18.64;100.00
27232;BME280;61835;50.196;6.454;2022-08-02T02:36:40;96715.63;;;18.44;100.00
27232;BME280;61835;50.196;6.454;2022-08-02T02:39:11;96710.25;;;18.44;100.00
27232;BME280;61835;50.196;6.454;2022-08-02T02:41:36;96711.72;;;18.30;100.00
27232;BME280;61835;50.196;6.454;2022-08-02T02:44:02;96708.56;;;18.35;100.00
27232;BME280;61835;50.196;6.454;2022-08-02T02:46:31;96706.22;;;18.32;100.00
27232;BME280;61835;50.196;6.454;2022-08-02T02:48:57;96712.09;;;18.35;100.00
27232;BME280;61835;50.196;6.454;2022-08-02T02:51:23;96706.53;;;18.37;100.00
27232;BME280;61835;50.196;6.454;2022-08-02T02:53:50;96711.91;;;18.29;100.00
27232;BME280;61835;50.196;6.454;2022-08-02T02:56:17;96710.75;;;18.39;100.00
27232;BME280;61835;50.196;6.454;2022-08-02T02:58:44;96710.25;;;18.44;100.00
27232;BME280;61835;50.196;6.454;2022-08-02T03:01:10;96703.03;;;18.45;100.00
27232;BME280;61835;50.196;6.454;2022-08-02T03:03:55;96698.47;;;18.37;100.00
27232;BME280;61835;50.196;6.454;2022-08-02T03:06:21;96703.84;;;18.37;100.00
27232;BME280;61835;50.196;6.454;2022-08-02T03:08:46;96701.50;;;18.34;100.00
27232;BME280;61835;50.196;6.454;2022-08-02T03:11:12;96701.69;;;18.40;100.00
27232;BME280;61835;50.196;6.454;2022-08-02T03:13:38;96695.66;;;18.38;100.00
27232;BME280;61835;50.196;6.454;2022-08-02T03:16:05;96694.94;;;18.28;100.00
27232;BME280;61835;50.196;6.454;2022-08-02T03:18:40;96688.06;;;18.26;100.00
27232;BME280;61835;50.196;6.454;2022-08-02T03:21:11;96696.13;;;18.18;100.00
27232;BME280;61835;50.196;6.454;2022-08-02T03:23:37;96695.59;;;18.14;100.00
27232;BME280;61835;50.196;6.454;2022-08-02T03:26:04;96697.97;;;18.09;100.00
27232;BME280;61835;50.196;6.454;2022-08-02T03:28:30;96699.09;;;17.99;100.00
27232;BME280;61835;50.196;6.454;2022-08-02T03:30:55;96704.47;;;17.99;100.00
27232;BME280;61835;50.196;6.454;2022-08-02T03:33:23;96703.13;;;18.03;100.00
27232;BME280;61835;50.196;6.454;2022-08-02T03:35:51;96712.69;;;17.97;100.00
27232;BME280;61835;50.196;6.454;2022-08-02T03:38:17;96706.09;;;18.58;100.00
27232;BME280;61835;50.196;6.454;2022-08-02T03:40:44;96699.66;;;18.18;100.00
27232;BME280;61835;50.196;6.454;2022-08-02T03:43:11;96696.78;;;18.20;100.00
27232;BME280;61835;50.196;6.454;2022-08-02T03:45:42;96710.22;;;18.12;100.00
27232;BME280;61835;50.196;6.454;2022-08-02T03:48:10;96708.03;;;18.23;100.00
27232;BME280;61835;50.196;6.454;2022-08-02T03:50:36;96701.16;;;18.29;100.00
27232;BME280;61835;50.196;6.454;2022-08-02T03:53:02;96699.81;;;18.25;100.00
27232;BME280;61835;50.196;6.454;2022-08-02T03:55:28;96696.78;;;18.20;100.00
27232;BME280;61835;50.196;6.454;2022-08-02T03:57:54;96686.91;;;18.28;100.00
27232;BME280;61835;50.196;6.454;2022-08-02T04:00:21;96694.88;;;17.80;100.00
27232;BME280;61835;50.196;6.454;2022-08-02T04:02:47;96689.63;;;17.70;100.00
27232;BME280;61835;50.196;6.454;2022-08-02T04:05:13;96698.34;;;17.72;100.00
27232;BME280;61835;50.196;6.454;2022-08-02T04:07:39;96691.34;;;17.79;100.00
27232;BME280;61835;50.196;6.454;2022-08-02T04:10:05;96693.66;;;17.74;100.00
27232;BME280;61835;50.196;6.454;2022-08-02T04:12:30;96693.09;;;17.63;100.00
27232;BME280;61835;50.196;6.454;2022-08-02T04:14:57;96686.03;;;19.25;100.00
27232;BME280;61835;50.196;6.454;2022-08-02T04:17:24;96696.00;;;17.77;100.00
27232;BME280;61835;50.196;6.454;2022-08-02T04:19:52;96703.03;;;17.62;100.00
27232;BME280;61835;50.196;6.454;2022-08-02T04:22:41;96703.09;;;17.53;100.00
27232;BME280;61835;50.196;6.454;2022-08-02T04:25:10;96712.91;;;17.36;100.00
27232;BME280;61835;50.196;6.454;2022-08-02T04:27:36;96715.44;;;17.38;100.00
27232;BME280;61835;50.196;6.454;2022-08-02T04:30:03;96721.75;;;17.28;100.00
27232;BME280;61835;50.196;6.454;2022-08-02T04:32:30;96722.03;;;17.51;100.00
27232;BME280;61835;50.196;6.454;2022-08-02T04:34:57;96726.63;;;17.33;100.00
27232;BME280;61835;50.196;6.454;2022-08-02T04:37:24;96716.50;;;17.45;100.00
27232;BME280;61835;50.196;6.454;2022-08-02T04:39:49;96720.03;;;17.53;100.00
27232;BME280;61835;50.196;6.454;2022-08-02T04:42:22;96723.44;;;17.55;100.00
27232;BME280;61835;50.196;6.454;2022-08-02T04:44:49;96722.97;;;17.42;100.00
27232;BME280;61835;50.196;6.454;2022-08-02T04:47:15;96724.88;;;17.50;100.00
27232;BME280;61835;50.196;6.454;2022-08-02T04:49:40;96728.91;;;17.54;100.00
27232;BME280;61835;50.196;6.454;2022-08-02T04:52:06;96727.94;;;17.55;100.00
27232;BME280;61835;50.196;6.454;2022-08-02T04:54:31;96733.78;;;17.50;100.00
27232;BME280;61835;50.196;6.454;2022-08-02T04:56:56;96727.16;;;17.62;100.00
27232;BME280;61835;50.196;6.454;2022-08-02T04:59:22;96731.88;;;17.68;100.00
27232;BME280;61835;50.196;6.454;2022-08-02T05:01:47;96725.53;;;17.77;100.00
27232;BME280;61835;50.196;6.454;2022-08-02T05:04:13;96729.56;;;17.81;100.00
27232;BME280;61835;50.196;6.454;2022-08-02T05:06:38;96725.78;;;18.00;100.00
27232;BME280;61835;50.196;6.454;2022-08-02T05:09:04;96726.63;;;18.01;100.00
27232;BME280;61835;50.196;6.454;2022-08-02T05:11:30;96718.09;;;18.13;100.00
27232;BME280;61835;50.196;6.454;2022-08-02T05:13:55;96719.25;;;18.11;100.00
27232;BME280;61835;50.196;6.454;2022-08-02T05:16:21;96711.13;;;19.01;100.00
27232;BME280;61835;50.196;6.454;2022-08-02T05:18:46;96727.09;;;17.88;100.00
27232;BME280;61835;50.196;6.454;2022-08-02T05:21:11;96720.56;;;17.91;100.00
27232;BME280;61835;50.196;6.454;2022-08-02T05:23:37;96736.03;;;18.05;100.00
27232;BME280;61835;50.196;6.454;2022-08-02T05:26:02;96744.81;;;18.23;100.00
27232;BME280;61835;50.196;6.454;2022-08-02T05:28:28;96735.81;;;18.97;100.00
27232;BME280;61835;50.196;6.454;2022-08-02T05:30:53;96735.97;;;18.55;100.00
27232;BME280;61835;50.196;6.454;2022-08-02T05:33:19;96732.97;;;18.58;100.00
27232;BME280;61835;50.196;6.454;2022-08-02T05:35:44;96735.31;;;18.61;100.00
27232;BME280;61835;50.196;6.454;2022-08-02T05:38:09;96732.78;;;18.75;100.00
27232;BME280;61835;50.196;6.454;2022-08-02T05:40:35;96732.81;;;18.83;100.00
27232;BME280;61835;50.196;6.454;2022-08-02T05:43:00;96731.44;;;18.95;100.00
27232;BME280;61835;50.196;6.454;2022-08-02T05:45:26;96731.97;;;19.07;100.00
27232;BME280;61835;50.196;6.454;2022-08-02T05:47:51;96728.06;;;19.18;100.00
27232;BME280;61835;50.196;6.454;2022-08-02T05:50:18;96721.31;;;19.30;100.00
27232;BME280;61835;50.196;6.454;2022-08-02T05:53:01;96718.94;;;19.35;100.00
27232;BME280;61835;50.196;6.454;2022-08-02T05:55:39;96734.75;;;19.38;100.00
27232;BME280;61835;50.196;6.454;2022-08-02T05:58:20;96738.13;;;19.40;100.00
27232;BME280;61835;50.196;6.454;2022-08-02T06:00:48;96732.41;;;19.51;100.00
27232;BME280;61835;50.196;6.454;2022-08-02T06:03:22;96725.81;;;19.54;100.00
27232;BME280;61835;50.196;6.454;2022-08-02T06:06:05;96728.47;;;19.62;100.00
27232;BME280;61835;50.196;6.454;2022-08-02T06:08:41;96728.44;;;19.70;100.00
27232;BME280;61835;50.196;6.454;2022-08-02T06:11:11;96719.50;;;19.77;100.00
27232;BME280;61835;50.196;6.454;2022-08-02T06:13:37;96721.63;;;19.90;100.00
27232;BME280;61835;50.196;6.454;2022-08-02T06:16:04;96725.25;;;20.05;100.00
27232;BME280;61835;50.196;6.454;2022-08-02T06:18:30;96722.41;;;20.07;100.00
27232;BME280;61835;50.196;6.454;2022-08-02T06:20:57;96722.41;;;20.07;100.00
27232;BME280;61835;50.196;6.454;2022-08-02T06:23:25;96720.75;;;20.36;100.00
27232;BME280;61835;50.196;6.454;2022-08-02T06:25:52;96719.53;;;20.62;100.00
27232;BME280;61835;50.196;6.454;2022-08-02T06:28:18;96717.41;;;20.94;100.00
27232;BME280;61835;50.196;6.454;2022-08-02T06:30:44;96722.72;;;21.10;100.00
27232;BME280;61835;50.196;6.454;2022-08-02T06:33:10;96724.34;;;21.49;100.00
27232;BME280;61835;50.196;6.454;2022-08-02T06:35:56;96717.88;;;21.79;100.00
27232;BME280;61835;50.196;6.454;2022-08-02T06:38:26;96717.59;;;22.18;100.00
27232;BME280;61835;50.196;6.454;2022-08-02T06:41:11;96716.41;;;22.42;100.00
27232;BME280;61835;50.196;6.454;2022-08-02T06:43:45;96721.97;;;22.55;100.00
27232;BME280;61835;50.196;6.454;2022-08-02T06:46:11;96716.63;;;22.83;100.00
27232;BME280;61835;50.196;6.454;2022-08-02T06:48:37;96715.69;;;23.18;100.00
27232;BME280;61835;50.196;6.454;2022-08-02T06:51:03;96720.44;;;23.37;100.00
27232;BME280;61835;50.196;6.454;2022-08-02T06:53:29;96716.47;;;24.02;100.00
27232;BME280;61835;50.196;6.454;2022-08-02T06:55:54;96715.97;;;25.32;100.00
27232;BME280;61835;50.196;6.454;2022-08-02T06:58:20;96708.84;;;24.12;100.00
27232;BME280;61835;50.196;6.454;2022-08-02T07:00:46;96715.81;;;23.93;100.00
27232;BME280;61835;50.196;6.454;2022-08-02T07:03:11;96718.00;;;24.11;100.00
27232;BME280;61835;50.196;6.454;2022-08-02T07:05:37;96719.28;;;24.21;100.00
27232;BME280;61835;50.196;6.454;2022-08-02T07:08:03;96714.34;;;24.44;100.00
27232;BME280;61835;50.196;6.454;2022-08-02T07:10:29;96718.97;;;24.51;100.00
27232;BME280;61835;50.196;6.454;2022-08-02T07:12:55;96716.50;;;24.69;100.00
27232;BME280;61835;50.196;6.454;2022-08-02T07:15:20;96717.13;;;24.64;100.00
27232;BME280;61835;50.196;6.454;2022-08-02T07:17:46;96704.38;;;24.52;100.00
27232;BME280;61835;50.196;6.454;2022-08-02T07:20:11;96716.16;;;24.98;100.00
27232;BME280;61835;50.196;6.454;2022-08-02T07:22:38;96717.84;;;24.99;100.00
27232;BME280;61835;50.196;6.454;2022-08-02T07:25:03;96712.84;;;25.09;100.00
27232;BME280;61835;50.196;6.454;2022-08-02T07:27:29;96712.00;;;25.35;100.00
27232;BME280;61835;50.196;6.454;2022-08-02T07:29:55;96706.13;;;25.64;100.00
27232;BME280;61835;50.196;6.454;2022-08-02T07:32:22;96709.81;;;25.89;100.00
27232;BME280;61835;50.196;6.454;2022-08-02T07:34:49;96707.91;;;26.03;100.00
27232;BME280;61835;50.196;6.454;2022-08-02T07:37:14;96706.22;;;26.15;100.00
27232;BME280;61835;50.196;6.454;2022-08-02T07:39:40;96708.59;;;25.79;100.00
27232;BME280;61835;50.196;6.454;2022-08-02T07:42:05;96706.63;;;26.12;100.00
27232;BME280;61835;50.196;6.454;2022-08-02T07:44:31;96706.16;;;26.28;100.00
27232;BME280;61835;50.196;6.454;2022-08-02T07:47:02;96714.16;;;26.54;100.00
27232;BME280;61835;50.196;6.454;2022-08-02T07:49:28;96713.41;;;26.47;100.00
27232;BME280;61835;50.196;6.454;2022-08-02T07:51:54;96706.56;;;26.70;100.00
27232;BME280;61835;50.196;6.454;2022-08-02T07:54:20;96700.63;;;26.86;100.00
27232;BME280;61835;50.196;6.454;2022-08-02T07:56:45;96707.28;;;26.90;100.00
27232;BME280;61835;50.196;6.454;2022-08-02T07:59:11;96696.31;;;27.03;100.00
27232;BME280;61835;50.196;6.454;2022-08-02T08:01:36;96699.16;;;27.14;100.00
27232;BME280;61835;50.196;6.454;2022-08-02T08:04:03;96704.22;;;27.60;100.00
27232;BME280;61835;50.196;6.454;2022-08-02T08:06:28;96702.94;;;27.63;100.00
27232;BME280;61835;50.196;6.454;2022-08-02T08:08:55;96704.41;;;27.34;100.00
27232;BME280;61835;50.196;6.454;2022-08-02T08:11:20;96698.50;;;27.44;100.00
27232;BME280;61835;50.196;6.454;2022-08-02T08:13:46;96689.34;;;27.81;100.00
27232;BME280;61835;50.196;6.454;2022-08-02T08:16:11;96680.50;;;27.61;100.00
27232;BME280;61835;50.196;6.454;2022-08-02T08:18:37;96691.56;;;27.84;100.00
27232;BME280;61835;50.196;6.454;2022-08-02T08:21:03;96688.03;;;28.20;99.07
27232;BME280;61835;50.196;6.454;2022-08-02T08:23:28;96686.38;;;27.83;100.00
27232;BME280;61835;50.196;6.454;2022-08-02T08:25:53;96681.56;;;27.96;100.00
27232;BME280;61835;50.196;6.454;2022-08-02T08:28:19;96683.66;;;28.19;97.46
27232;BME280;61835;50.196;6.454;2022-08-02T08:30:44;96678.31;;;28.42;93.60
27232;BME280;61835;50.196;6.454;2022-08-02T08:33:11;96683.38;;;28.87;85.08
27232;BME280;61835;50.196;6.454;2022-08-02T08:35:37;96687.22;;;28.67;87.75
27232;BME280;61835;50.196;6.454;2022-08-02T08:38:03;96678.50;;;28.11;92.11
27232;BME280;61835;50.196;6.454;2022-08-02T08:40:28;96678.34;;;28.06;95.59
27232;BME280;61835;50.196;6.454;2022-08-02T08:42:53;96673.31;;;28.39;90.87
27232;BME280;61835;50.196;6.454;2022-08-02T08:45:19;96675.47;;;28.67;90.30
27232;BME280;61835;50.196;6.454;2022-08-02T08:47:49;96681.97;;;28.96;91.28
27232;BME280;61835;50.196;6.454;2022-08-02T08:50:20;96684.81;;;28.89;85.65
27232;BME280;61835;50.196;6.454;2022-08-02T08:53:05;96684.31;;;28.33;85.33
27232;BME280;61835;50.196;6.454;2022-08-02T08:55:33;96687.00;;;28.51;81.52
27232;BME280;61835;50.196;6.454;2022-08-02T08:57:59;96682.09;;;29.01;78.64
27232;BME280;61835;50.196;6.454;2022-08-02T09:00:25;96675.16;;;29.74;75.53
27232;BME280;61835;50.196;6.454;2022-08-02T09:02:52;96669.78;;;30.03;71.18
27232;BME280;61835;50.196;6.454;2022-08-02T09:05:17;96670.03;;;30.01;69.41
27232;BME280;61835;50.196;6.454;2022-08-02T09:07:47;96677.81;;;30.32;69.10
27232;BME280;61835;50.196;6.454;2022-08-02T09:15:39;96680.06;;;30.35;64.65
27232;BME280;61835;50.196;6.454;2022-08-02T09:18:07;96690.25;;;29.77;68.64
27232;BME280;61835;50.196;6.454;2022-08-02T09:20:34;96683.84;;;29.95;69.96
27232;BME280;61835;50.196;6.454;2022-08-02T09:23:07;96689.56;;;28.94;71.36
27232;BME280;61835;50.196;6.454;2022-08-02T09:25:34;96689.31;;;29.37;70.96
27232;BME280;61835;50.196;6.454;2022-08-02T09:28:02;96682.78;;;29.49;66.61
27232;BME280;61835;50.196;6.454;2022-08-02T09:30:28;96690.50;;;29.75;68.57
27232;BME280;61835;50.196;6.454;2022-08-02T09:32:53;96675.75;;;30.11;65.26
27232;BME280;61835;50.196;6.454;2022-08-02T09:35:32;96682.19;;;30.45;63.13
27232;BME280;61835;50.196;6.454;2022-08-02T09:38:11;96678.94;;;30.60;61.78
27232;BME280;61835;50.196;6.454;2022-08-02T09:40:37;96676.88;;;30.67;60.20
27232;BME280;61835;50.196;6.454;2022-08-02T09:43:04;96681.25;;;30.79;59.53
27232;BME280;61835;50.196;6.454;2022-08-02T09:45:30;96694.09;;;29.99;60.91
27232;BME280;61835;50.196;6.454;2022-08-02T09:47:59;96675.75;;;29.88;62.57
27232;BME280;61835;50.196;6.454;2022-08-02T09:50:24;96677.56;;;30.34;59.00
27232;BME280;61835;50.196;6.454;2022-08-02T09:52:50;96677.09;;;30.37;56.39
27232;BME280;61835;50.196;6.454;2022-08-02T09:55:15;96672.50;;;30.82;55.92
27232;BME280;61835;50.196;6.454;2022-08-02T09:57:41;96673.25;;;31.23;57.86
27232;BME280;61835;50.196;6.454;2022-08-02T10:00:07;96675.06;;;31.34;53.50
27232;BME280;61835;50.196;6.454;2022-08-02T10:02:37;96667.84;;;30.83;54.96
27232;BME280;61835;50.196;6.454;2022-08-02T10:05:03;96669.75;;;31.11;53.89
27232;BME280;61835;50.196;6.454;2022-08-02T10:07:28;96662.63;;;31.60;53.63
27232;BME280;61835;50.196;6.454;2022-08-02T10:09:55;96662.03;;;32.34;49.54
27232;BME280;61835;50.196;6.454;2022-08-02T10:12:21;96655.69;;;32.77;48.73
27232;BME280;61835;50.196;6.454;2022-08-02T10:14:49;96658.78;;;32.86;47.41
27232;BME280;61835;50.196;6.454;2022-08-02T10:17:14;96664.31;;;32.64;46.68
27232;BME280;61835;50.196;6.454;2022-08-02T10:19:44;96670.13;;;32.94;47.49
27232;BME280;61835;50.196;6.454;2022-08-02T10:22:13;96666.59;;;33.26;45.98
27232;BME280;61835;50.196;6.454;2022-08-02T10:24:40;96659.38;;;32.66;45.34
27232;BME280;61835;50.196;6.454;2022-08-02T10:27:16;96648.91;;;32.63;45.72
27232;BME280;61835;50.196;6.454;2022-08-02T10:29:45;96653.97;;;32.71;45.24
27232;BME280;61835;50.196;6.454;2022-08-02T10:32:32;96653.41;;;32.47;45.42
27232;BME280;61835;50.196;6.454;2022-08-02T10:35:12;96643.94;;;32.87;45.91
27232;BME280;61835;50.196;6.454;2022-08-02T10:37:40;96662.25;;;32.54;44.13
27232;BME280;61835;50.196;6.454;2022-08-02T10:40:08;96663.16;;;33.08;44.18
27232;BME280;61835;50.196;6.454;2022-08-02T10:42:51;96667.50;;;32.13;44.76
27232;BME280;61835;50.196;6.454;2022-08-02T10:45:19;96664.13;;;32.06;44.56
27232;BME280;61835;50.196;6.454;2022-08-02T10:50:51;96652.94;;;32.77;41.43
27232;BME280;61835;50.196;6.454;2022-08-02T10:53:34;96645.66;;;33.25;41.56
27232;BME280;61835;50.196;6.454;2022-08-02T10:56:03;96643.53;;;33.63;39.91
27232;BME280;61835;50.196;6.454;2022-08-02T10:58:30;96643.50;;;34.05;39.83
27232;BME280;61835;50.196;6.454;2022-08-02T11:00:57;96640.50;;;34.69;39.23
27232;BME280;61835;50.196;6.454;2022-08-02T11:06:12;96627.81;;;36.04;37.41
27232;BME280;61835;50.196;6.454;2022-08-02T11:08:37;96627.63;;;36.55;36.82
27232;BME280;61835;50.196;6.454;2022-08-02T11:14:03;96633.88;;;35.91;38.64
27232;BME280;61835;50.196;6.454;2022-08-02T11:19:20;96628.75;;;37.65;33.39
27232;BME280;61835;50.196;6.454;2022-08-02T11:22:00;96625.25;;;37.21;33.26
27232;BME280;61835;50.196;6.454;2022-08-02T11:24:33;96624.63;;;37.63;34.31
27232;BME280;61835;50.196;6.454;2022-08-02T11:27:04;96622.94;;;37.67;34.20
27232;BME280;61835;50.196;6.454;2022-08-02T11:32:01;96615.88;;;36.78;36.34
27232;BME280;61835;50.196;6.454;2022-08-02T11:34:27;96614.41;;;36.36;36.00
27232;BME280;61835;50.196;6.454;2022-08-02T11:36:55;96615.28;;;36.81;36.23
27232;BME280;61835;50.196;6.454;2022-08-02T11:39:22;96610.50;;;37.64;35.32
27232;BME280;61835;50.196;6.454;2022-08-02T11:44:14;96614.69;;;37.85;33.39
27232;BME280;61835;50.196;6.454;2022-08-02T11:46:40;96619.03;;;38.63;33.13
27232;BME280;61835;50.196;6.454;2022-08-02T11:49:16;96617.84;;;37.74;32.66
27232;BME280;61835;50.196;6.454;2022-08-02T11:51:53;96614.88;;;35.64;34.57
27232;BME280;61835;50.196;6.454;2022-08-02T11:54:32;96607.97;;;34.81;36.50
27232;BME280;61835;50.196;6.454;2022-08-02T11:57:18;96615.03;;;34.42;37.69
27232;BME280;61835;50.196;6.454;2022-08-02T11:59:47;96607.94;;;34.61;38.34
27232;BME280;61835;50.196;6.454;2022-08-02T12:02:14;96621.75;;;33.25;40.90
27232;BME280;61835;50.196;6.454;2022-08-02T12:04:39;96604.09;;;34.62;37.79
27232;BME280;61835;50.196;6.454;2022-08-02T12:07:05;96619.00;;;34.71;38.21
27232;BME280;61835;50.196;6.454;2022-08-02T12:09:33;96606.78;;;33.85;39.97
27232;BME280;61835;50.196;6.454;2022-08-02T12:12:00;96619.47;;;33.91;40.50
27232;BME280;61835;50.196;6.454;2022-08-02T12:14:28;96607.84;;;34.46;38.91
27232;BME280;61835;50.196;6.454;2022-08-02T12:16:54;96608.81;;;35.72;37.41
27232;BME280;61835;50.196;6.454;2022-08-02T12:19:40;96604.50;;;36.30;36.39
27232;BME280;61835;50.196;6.454;2022-08-02T12:24:39;96615.75;;;36.98;34.92
27232;BME280;61835;50.196;6.454;2022-08-02T12:27:05;96609.91;;;37.05;34.66
27232;BME280;61835;50.196;6.454;2022-08-02T12:29:36;96620.69;;;36.47;35.24
27232;BME280;61835;50.196;6.454;2022-08-02T12:32:03;96608.16;;;36.16;36.38
27232;BME280;61835;50.196;6.454;2022-08-02T12:34:30;96609.94;;;35.51;36.34
27232;BME280;61835;50.196;6.454;2022-08-02T12:36:58;96607.19;;;35.11;38.45
27232;BME280;61835;50.196;6.454;2022-08-02T12:39:37;96604.00;;;34.47;39.23
27232;BME280;61835;50.196;6.454;2022-08-02T12:42:04;96610.25;;;34.22;39.20
27232;BME280;61835;50.196;6.454;2022-08-02T12:44:30;96608.59;;;35.18;37.02
27232;BME280;61835;50.196;6.454;2022-08-02T12:47:06;96607.19;;;35.36;36.10
27232;BME280;61835;50.196;6.454;2022-08-02T12:49:32;96597.50;;;35.64;36.52
27232;BME280;61835;50.196;6.454;2022-08-02T12:51:57;96595.22;;;35.91;36.47
27232;BME280;61835;50.196;6.454;2022-08-02T12:54:29;96603.97;;;36.23;36.24
27232;BME280;61835;50.196;6.454;2022-08-02T12:56:56;96594.22;;;35.42;36.87
27232;BME280;61835;50.196;6.454;2022-08-02T12:59:33;96594.19;;;34.76;37.66
27232;BME280;61835;50.196;6.454;2022-08-02T13:02:08;96595.47;;;34.43;38.08
27232;BME280;61835;50.196;6.454;2022-08-02T13:04:35;96590.09;;;35.24;36.70
27232;BME280;61835;50.196;6.454;2022-08-02T13:07:01;96585.34;;;34.64;37.70
27232;BME280;61835;50.196;6.454;2022-08-02T13:09:27;96582.94;;;35.13;36.45
27232;BME280;61835;50.196;6.454;2022-08-02T13:11:52;96580.41;;;35.57;36.71
27232;BME280;61835;50.196;6.454;2022-08-02T13:14:17;96578.63;;;36.01;35.97
27232;BME280;61835;50.196;6.454;2022-08-02T13:16:44;96578.72;;;35.56;36.98
27232;BME280;61835;50.196;6.454;2022-08-02T13:19:10;96578.56;;;36.75;35.17
27232;BME280;61835;50.196;6.454;2022-08-02T13:21:37;96568.72;;;37.32;35.24
27232;BME280;61835;50.196;6.454;2022-08-02T13:24:03;96554.25;;;36.67;34.43
27232;BME280;61835;50.196;6.454;2022-08-02T13:26:28;96558.72;;;36.09;35.08
27232;BME280;61835;50.196;6.454;2022-08-02T13:28:53;96568.97;;;36.63;33.82
27232;BME280;61835;50.196;6.454;2022-08-02T13:31:19;96556.75;;;36.69;34.54
27232;BME280;61835;50.196;6.454;2022-08-02T13:33:44;96557.66;;;36.98;34.42
27232;BME280;61835;50.196;6.454;2022-08-02T13:36:10;96551.47;;;37.40;34.01